createdAt,value
2022-12-11T00:00:51.678Z,23.17
2022-12-11T00:03:18.906Z,24.85
2022-12-11T00:05:45.956Z,23.75
2022-12-11T00:08:14.165Z,26.33
2022-12-11T00:10:47.958Z,24.15
2022-12-11T00:13:14.456Z,21.90
2022-12-11T00:15:41.101Z,24.02
2022-12-11T00:18:09.572Z,23.35
2022-12-11T00:20:37.899Z,24.75
2022-12-11T00:23:04.906Z,26.48
2022-12-11T00:25:31.389Z,24.25
2022-12-11T00:27:57.955Z,24.25
2022-12-11T00:30:24.453Z,24.38
2022-12-11T00:32:54.130Z,23.23
2022-12-11T00:35:20.639Z,25.60
2022-12-11T00:37:47.139Z,22.75
2022-12-11T00:40:13.772Z,22.13
2022-12-11T00:42:40.289Z,18.63
2022-12-11T00:45:07.674Z,20.58
2022-12-11T00:47:34.379Z,18.02
2022-12-11T00:50:00.921Z,18.60
2022-12-11T00:52:27.489Z,17.00
2022-12-11T00:54:54.023Z,17.10
2022-12-11T00:57:20.596Z,20.00
2022-12-11T00:59:47.146Z,18.45
2022-12-11T01:02:14.265Z,19.98
2022-12-11T01:04:40.891Z,18.52
2022-12-11T01:07:07.497Z,20.30
2022-12-11T01:09:33.992Z,19.80
2022-12-11T01:12:00.629Z,21.92
2022-12-11T01:14:27.618Z,20.63
2022-12-11T01:16:54.328Z,19.08
2022-12-11T01:19:20.929Z,20.50
2022-12-11T01:21:47.919Z,21.92
2022-12-11T01:24:14.520Z,21.52
2022-12-11T01:26:40.977Z,22.08
2022-12-11T01:29:07.506Z,21.05
2022-12-11T01:31:33.991Z,21.67
2022-12-11T01:34:00.591Z,20.33
2022-12-11T01:36:27.109Z,21.00
2022-12-11T01:38:53.604Z,21.65
2022-12-11T01:41:20.280Z,19.75
2022-12-11T01:44:05.684Z,23.73
2022-12-11T01:46:34.640Z,20.48
2022-12-11T01:49:04.768Z,21.60
2022-12-11T01:51:32.873Z,21.80
2022-12-11T01:54:03.718Z,21.35
2022-12-11T01:56:31.291Z,20.30
2022-12-11T01:59:00.234Z,25.33
2022-12-11T02:01:45.677Z,23.63
2022-12-11T02:04:13.621Z,22.58
2022-12-11T02:06:48.758Z,21.98
2022-12-11T02:09:43.493Z,23.65
2022-12-11T02:12:36.400Z,21.33
2022-12-11T02:15:15.753Z,22.67
2022-12-11T02:18:05.481Z,21.70
2022-12-11T02:20:46.093Z,20.58
2022-12-11T02:23:12.542Z,22.40
2022-12-11T02:25:48.088Z,23.73
2022-12-11T02:28:26.199Z,23.67
2022-12-11T02:30:59.304Z,20.77
2022-12-11T02:33:34.169Z,22.92
2022-12-11T02:36:00.992Z,24.10
2022-12-11T02:38:33.730Z,24.20
2022-12-11T02:41:01.180Z,24.55
2022-12-11T02:43:30.265Z,25.55
2022-12-11T02:45:57.650Z,27.00
2022-12-11T02:48:24.345Z,24.02
2022-12-11T02:50:53.368Z,24.50
2022-12-11T02:53:23.954Z,25.30
2022-12-11T02:58:22.214Z,23.15
2022-12-11T03:00:48.834Z,24.17
2022-12-11T03:03:15.388Z,25.80
2022-12-11T03:05:43.415Z,23.30
2022-12-11T03:08:10.470Z,26.98
2022-12-11T03:10:37.153Z,26.05
2022-12-11T03:13:05.847Z,23.33
2022-12-11T03:16:07.145Z,24.92
2022-12-11T03:18:35.145Z,25.45
2022-12-11T03:21:04.748Z,26.63
2022-12-11T03:23:37.490Z,25.25
2022-12-11T03:26:06.974Z,24.40
2022-12-11T03:28:47.089Z,26.33
2022-12-11T03:31:23.119Z,27.60
2022-12-11T03:33:52.017Z,28.77
2022-12-11T03:36:23.742Z,27.60
2022-12-11T03:38:54.129Z,27.83
2022-12-11T03:41:25.940Z,28.48
2022-12-11T03:43:59.714Z,28.92
2022-12-11T03:46:35.299Z,28.25
2022-12-11T03:49:05.885Z,25.63
2022-12-11T03:54:00.002Z,26.75
2022-12-11T03:56:29.402Z,25.88
2022-12-11T03:58:56.001Z,25.50
2022-12-11T04:01:22.659Z,24.95
2022-12-11T04:03:49.297Z,26.70
2022-12-11T04:06:15.837Z,28.60
2022-12-11T04:08:42.314Z,26.42
2022-12-11T04:11:09.860Z,27.45
2022-12-11T04:13:59.217Z,27.50
2022-12-11T04:16:39.824Z,28.40
2022-12-11T04:19:26.582Z,27.35
2022-12-11T04:21:53.627Z,27.10
2022-12-11T04:24:20.547Z,28.00
2022-12-11T04:26:47.319Z,27.10
2022-12-11T04:29:14.927Z,27.33
2022-12-11T04:31:41.559Z,25.85
2022-12-11T04:34:08.136Z,25.30
2022-12-11T04:36:34.896Z,26.40
2022-12-11T04:39:05.593Z,22.13
2022-12-11T04:43:58.541Z,25.10
2022-12-11T04:46:25.615Z,26.58
2022-12-11T04:48:57.301Z,23.42
2022-12-11T04:51:24.850Z,22.60
2022-12-11T04:53:51.606Z,21.50
2022-12-11T04:56:18.348Z,22.52
2022-12-11T04:58:45.608Z,24.13
2022-12-11T05:01:17.626Z,22.25
2022-12-11T05:03:44.230Z,22.92
2022-12-11T05:06:11.261Z,20.27
2022-12-11T05:08:39.758Z,21.45
2022-12-11T05:11:08.111Z,21.88
2022-12-11T05:13:34.669Z,21.77
2022-12-11T05:16:04.848Z,19.75
2022-12-11T05:18:31.488Z,20.10
2022-12-11T05:20:59.956Z,20.52
2022-12-11T05:23:26.846Z,18.52
2022-12-11T05:25:54.529Z,19.83
2022-12-11T05:28:22.734Z,20.77
2022-12-11T05:30:49.230Z,20.15
2022-12-11T05:33:15.994Z,19.38
2022-12-11T05:35:47.541Z,20.52
2022-12-11T05:38:14.213Z,18.75
2022-12-11T05:40:40.775Z,19.08
2022-12-11T05:43:07.393Z,23.52
2022-12-11T05:45:34.220Z,20.85
2022-12-11T05:48:01.302Z,20.58
2022-12-11T05:50:28.221Z,21.25
2022-12-11T05:52:57.967Z,21.95
2022-12-11T05:55:24.493Z,21.38
2022-12-11T05:57:51.069Z,18.67
2022-12-11T06:00:17.549Z,21.10
2022-12-11T06:02:44.179Z,22.98
2022-12-11T06:05:11.339Z,21.42
2022-12-11T06:07:41.466Z,24.58
2022-12-11T06:10:08.361Z,26.42
2022-12-11T06:12:34.837Z,24.17
2022-12-11T06:15:01.315Z,23.33
2022-12-11T06:17:27.798Z,27.13
2022-12-11T06:19:54.328Z,22.52
2022-12-11T06:22:20.882Z,21.58
2022-12-11T06:24:47.397Z,22.98
2022-12-11T06:27:14.552Z,19.05
2022-12-11T06:29:41.189Z,22.30
2022-12-11T06:32:13.309Z,19.73
2022-12-11T06:34:40.463Z,21.17
2022-12-11T06:37:07.129Z,20.67
2022-12-11T06:39:33.670Z,19.58
2022-12-11T06:42:00.324Z,19.45
2022-12-11T06:44:28.962Z,21.60
2022-12-11T06:46:55.525Z,22.13
2022-12-11T06:49:22.337Z,23.65
2022-12-11T06:51:48.925Z,20.27
2022-12-11T06:54:15.525Z,21.00
2022-12-11T06:56:42.066Z,21.27
2022-12-11T06:59:11.672Z,21.33
2022-12-11T07:01:39.541Z,21.38
2022-12-11T07:04:06.030Z,23.52
2022-12-11T07:06:33.577Z,25.05
2022-12-11T07:09:00.088Z,24.77
2022-12-11T07:11:26.583Z,22.92
2022-12-11T07:13:53.324Z,23.63
2022-12-11T07:16:20.070Z,25.50
2022-12-11T07:18:49.304Z,29.67
2022-12-11T07:21:15.973Z,25.52
2022-12-11T07:23:42.621Z,27.73
2022-12-11T07:26:12.332Z,27.75
2022-12-11T07:28:39.232Z,29.90
2022-12-11T07:31:07.709Z,29.88
2022-12-11T07:33:34.676Z,29.40
2022-12-11T07:36:05.301Z,27.23
2022-12-11T07:41:02.522Z,25.30
2022-12-11T07:46:05.084Z,22.83
2022-12-11T07:48:32.265Z,22.73
2022-12-11T07:51:09.949Z,23.30
2022-12-11T07:53:36.590Z,20.27
2022-12-11T07:56:03.924Z,21.83
2022-12-11T07:58:30.584Z,20.98
2022-12-11T08:00:57.263Z,17.65
2022-12-11T08:03:24.326Z,19.00
2022-12-11T08:05:51.641Z,20.33
2022-12-11T08:08:18.984Z,18.00
2022-12-11T08:10:45.950Z,18.23
2022-12-11T08:13:12.520Z,17.75
2022-12-11T08:15:39.500Z,14.55
2022-12-11T08:18:08.959Z,13.35
2022-12-11T08:20:38.008Z,12.20
2022-12-11T08:23:05.569Z,12.48
2022-12-11T08:25:32.170Z,10.07
2022-12-11T08:27:58.659Z,10.93
2022-12-11T08:30:28.403Z,12.30
2022-12-11T08:32:55.743Z,10.27
2022-12-11T08:35:22.225Z,11.27
2022-12-11T08:37:48.914Z,10.63
2022-12-11T08:40:18.742Z,9.73
2022-12-11T08:42:45.378Z,12.02
2022-12-11T08:45:12.424Z,10.35
2022-12-11T08:47:38.996Z,9.93
2022-12-11T08:50:06.225Z,10.88
2022-12-11T08:52:34.833Z,10.90
2022-12-11T08:55:01.454Z,11.63
2022-12-11T08:57:30.204Z,11.05
2022-12-11T08:59:56.714Z,13.25
2022-12-11T09:02:32.483Z,11.98
2022-12-11T09:05:01.634Z,12.48
2022-12-11T09:07:28.127Z,13.45
2022-12-11T09:09:55.266Z,12.30
2022-12-11T09:12:21.702Z,13.32
2022-12-11T09:14:48.211Z,13.75
2022-12-11T09:17:14.934Z,15.32
2022-12-11T09:19:41.501Z,14.00
2022-12-11T09:22:08.426Z,13.80
2022-12-11T09:24:35.050Z,12.88
2022-12-11T09:27:03.882Z,10.98
2022-12-11T09:29:30.384Z,11.57
2022-12-11T09:31:56.954Z,12.00
2022-12-11T09:34:29.245Z,13.70
2022-12-11T09:36:56.863Z,12.63
2022-12-11T09:39:23.503Z,13.13
2022-12-11T09:41:49.897Z,13.65
2022-12-11T09:44:20.925Z,13.32
2022-12-11T09:46:48.612Z,14.98
2022-12-11T09:49:35.875Z,13.93
2022-12-11T09:52:21.019Z,14.68
2022-12-11T09:54:57.110Z,17.95
2022-12-11T09:57:45.737Z,14.10
2022-12-11T10:00:44.267Z,13.95
2022-12-11T10:03:22.810Z,12.35
2022-12-11T10:06:22.461Z,13.50
2022-12-11T10:09:00.393Z,12.25
2022-12-11T10:11:38.649Z,12.27
2022-12-11T10:14:14.209Z,11.82
2022-12-11T10:17:00.880Z,12.25
2022-12-11T10:19:29.893Z,10.88
2022-12-11T10:21:57.393Z,11.68
2022-12-11T10:25:10.216Z,12.77
2022-12-11T10:27:30.602Z,11.90
2022-12-11T10:30:22.801Z,12.15
2022-12-11T10:34:03.491Z,11.50
2022-12-11T10:36:32.703Z,11.48
2022-12-11T10:38:59.226Z,12.38
2022-12-11T10:41:39.745Z,10.50
2022-12-11T10:44:32.657Z,10.25
2022-12-11T10:47:09.922Z,10.10
2022-12-11T10:49:38.105Z,10.55
2022-12-11T10:52:12.577Z,10.13
2022-12-11T10:54:44.470Z,10.20
2022-12-11T10:57:14.285Z,11.60
2022-12-11T10:59:44.906Z,10.98
2022-12-11T11:02:29.281Z,9.57
2022-12-11T11:04:57.893Z,8.90
2022-12-11T11:07:29.959Z,9.48
2022-12-11T11:10:11.787Z,10.35
2022-12-11T11:12:41.248Z,10.35
2022-12-11T11:15:18.069Z,9.02
2022-12-11T11:17:55.762Z,11.18
2022-12-11T11:20:30.522Z,11.20
2022-12-11T11:23:00.234Z,13.30
2022-12-11T11:25:31.510Z,14.20
2022-12-11T11:28:01.447Z,15.57
2022-12-11T11:30:31.168Z,14.48
2022-12-11T11:33:14.396Z,15.05
2022-12-11T11:35:54.399Z,13.10
2022-12-11T11:38:28.550Z,14.93
2022-12-11T11:40:59.419Z,16.63
2022-12-11T11:43:38.250Z,16.55
2022-12-11T11:46:21.378Z,15.38
2022-12-11T11:49:03.773Z,15.10
2022-12-11T11:51:36.316Z,14.77
2022-12-11T11:54:28.483Z,15.93
2022-12-11T11:56:56.742Z,13.15
2022-12-11T11:59:30.865Z,13.15
2022-12-11T12:01:57.933Z,17.30
2022-12-11T12:04:26.408Z,15.18
2022-12-11T12:07:07.002Z,15.05
2022-12-11T12:12:46.863Z,12.82
2022-12-11T12:15:35.849Z,12.77
2022-12-11T12:18:29.558Z,11.68
2022-12-11T12:21:14.791Z,11.88
2022-12-11T12:24:02.818Z,13.18
2022-12-11T12:26:29.526Z,13.07
2022-12-11T12:29:05.470Z,14.52
2022-12-11T12:31:44.276Z,13.77
2022-12-11T12:34:32.450Z,12.93
2022-12-11T12:37:37.923Z,14.52
2022-12-11T12:40:07.461Z,13.18
2022-12-11T12:42:50.565Z,13.82
2022-12-11T12:45:33.007Z,14.00
2022-12-11T12:47:59.706Z,17.55
2022-12-11T12:50:31.997Z,12.82
2022-12-11T12:52:58.756Z,15.07
2022-12-11T12:55:27.695Z,13.00
2022-12-11T12:58:02.233Z,13.63
2022-12-11T13:00:43.464Z,14.23
2022-12-11T13:03:15.505Z,15.05
2022-12-11T13:05:44.709Z,14.02
2022-12-11T13:08:12.450Z,15.65
2022-12-11T13:10:41.973Z,15.20
2022-12-11T13:13:38.867Z,14.60
2022-12-11T13:16:25.382Z,14.85
2022-12-11T13:18:52.252Z,15.90
2022-12-11T13:21:36.191Z,14.90
2022-12-11T13:24:14.901Z,14.38
2022-12-11T13:26:44.034Z,14.77
2022-12-11T13:29:31.352Z,15.35
2022-12-11T13:32:00.647Z,16.83
2022-12-11T13:34:32.023Z,14.70
2022-12-11T13:36:59.535Z,17.10
2022-12-11T13:39:28.104Z,16.45
2022-12-11T13:42:00.628Z,16.35
2022-12-11T13:44:32.059Z,15.55
2022-12-11T13:47:00.903Z,14.02
2022-12-11T13:49:35.229Z,17.23
2022-12-11T13:52:02.610Z,15.88
2022-12-11T13:54:30.872Z,16.42
2022-12-11T13:57:06.674Z,15.50
2022-12-11T13:59:40.896Z,18.02
2022-12-11T14:02:21.053Z,18.35
2022-12-11T14:04:50.040Z,17.55
2022-12-11T14:07:23.275Z,15.73
2022-12-11T14:09:50.137Z,16.02
2022-12-11T14:12:19.093Z,17.13
2022-12-11T14:14:57.931Z,15.95
2022-12-11T14:17:27.427Z,17.50
2022-12-11T14:19:56.494Z,17.80
2022-12-11T14:22:25.853Z,16.00
2022-12-11T14:24:55.005Z,16.48
2022-12-11T14:27:22.382Z,17.05
2022-12-11T14:29:49.385Z,18.15
2022-12-11T14:32:32.306Z,19.92
2022-12-11T14:34:59.892Z,20.65
2022-12-11T14:37:26.674Z,19.40
2022-12-11T14:40:14.937Z,20.05
2022-12-11T14:42:45.907Z,19.00
2022-12-11T14:45:23.078Z,20.15
2022-12-11T14:47:50.371Z,18.67
2022-12-11T14:50:34.999Z,21.70
2022-12-11T14:53:32.763Z,28.83
2022-12-11T14:56:02.914Z,26.17
2022-12-11T14:58:30.062Z,18.83
2022-12-11T15:01:20.692Z,20.02
2022-12-11T15:06:26.072Z,28.85
2022-12-11T15:08:53.755Z,20.75
2022-12-11T15:11:20.512Z,19.08
2022-12-11T15:13:57.926Z,19.90
2022-12-11T15:16:26.126Z,18.45
2022-12-11T15:18:54.102Z,23.10
2022-12-11T15:21:34.814Z,20.60
2022-12-11T15:24:04.412Z,18.75
2022-12-11T15:26:36.970Z,23.30
2022-12-11T15:29:06.923Z,21.48
2022-12-11T15:31:34.826Z,21.30
2022-12-11T15:34:01.945Z,20.17
2022-12-11T15:36:32.794Z,20.27
2022-12-11T15:38:59.305Z,20.13
2022-12-11T15:41:25.858Z,21.10
2022-12-11T15:43:58.541Z,18.88
2022-12-11T15:46:25.572Z,21.65
2022-12-11T15:48:52.203Z,21.35
2022-12-11T15:51:18.763Z,20.95
2022-12-11T15:53:45.276Z,19.02
2022-12-11T15:56:20.629Z,19.45
2022-12-11T15:58:51.322Z,17.70
2022-12-11T16:01:18.287Z,21.00
2022-12-11T16:03:45.945Z,21.13
2022-12-11T16:06:14.565Z,18.52
2022-12-11T16:08:41.162Z,21.33
2022-12-11T16:11:07.702Z,22.00
2022-12-11T16:13:34.239Z,20.42
2022-12-11T16:16:00.951Z,21.15
2022-12-11T16:18:27.528Z,22.70
2022-12-11T16:20:55.520Z,22.40
2022-12-11T16:23:22.070Z,20.58
2022-12-11T16:25:48.879Z,24.38
2022-12-11T16:28:17.946Z,23.08
2022-12-11T16:30:44.723Z,24.67
2022-12-11T16:33:13.394Z,22.73
2022-12-11T16:35:41.065Z,23.08
2022-12-11T16:38:10.951Z,23.70
2022-12-11T16:40:37.883Z,24.15
2022-12-11T16:43:08.142Z,20.85
2022-12-11T16:45:34.701Z,24.63
2022-12-11T16:48:04.504Z,33.58
2022-12-11T16:50:31.174Z,20.35
2022-12-11T16:52:57.718Z,23.77
2022-12-11T16:55:24.218Z,24.58
2022-12-11T16:57:50.759Z,21.08
2022-12-11T17:00:17.520Z,24.48
2022-12-11T17:02:44.069Z,23.98
2022-12-11T17:05:11.185Z,29.00
2022-12-11T17:07:38.145Z,30.60
2022-12-11T17:10:04.957Z,31.50
2022-12-11T17:12:31.573Z,30.65
2022-12-11T17:14:58.202Z,32.35
2022-12-11T17:17:25.014Z,27.02
2022-12-11T17:19:51.681Z,28.70
2022-12-11T17:22:18.368Z,28.23
2022-12-11T17:24:45.151Z,28.40
2022-12-11T17:27:11.868Z,29.92
2022-12-11T17:29:38.444Z,31.02
2022-12-11T17:32:05.321Z,30.55
2022-12-11T17:34:37.605Z,26.50
2022-12-11T17:37:05.165Z,31.40
2022-12-11T17:39:31.896Z,27.73
2022-12-11T17:41:59.644Z,25.33
2022-12-11T17:44:26.837Z,25.08
2022-12-11T17:46:55.093Z,23.75
2022-12-11T17:49:21.583Z,21.40
2022-12-11T17:51:48.093Z,23.70
2022-12-11T17:54:29.487Z,23.48
2022-12-11T17:56:56.060Z,22.98
2022-12-11T17:59:22.787Z,22.30
2022-12-11T18:01:49.397Z,20.55
2022-12-11T18:04:18.671Z,22.27
2022-12-11T18:06:45.240Z,20.67
2022-12-11T18:09:11.808Z,19.38
2022-12-11T18:11:38.342Z,17.40
2022-12-11T18:14:05.081Z,20.17
2022-12-11T18:16:39.031Z,21.27
2022-12-11T18:19:06.160Z,20.33
2022-12-11T18:21:34.272Z,21.60
2022-12-11T18:24:03.941Z,20.35
2022-12-11T18:26:30.510Z,25.08
2022-12-11T18:28:57.096Z,23.15
2022-12-11T18:31:24.244Z,23.92
2022-12-11T18:33:51.013Z,22.13
2022-12-11T18:36:21.180Z,23.95
2022-12-11T18:38:48.038Z,24.63
2022-12-11T18:41:16.069Z,26.10
2022-12-11T18:43:42.856Z,26.25
2022-12-11T18:46:11.892Z,27.13
2022-12-11T18:48:38.557Z,26.35
2022-12-11T18:51:08.174Z,29.85
2022-12-11T18:53:34.911Z,29.45
2022-12-11T18:56:06.203Z,29.30
2022-12-11T18:58:35.229Z,26.75
2022-12-11T19:01:08.698Z,28.40
2022-12-11T19:03:35.629Z,28.27
2022-12-11T19:06:09.869Z,29.48
2022-12-11T19:08:36.601Z,29.90
2022-12-11T19:11:03.739Z,26.75
2022-12-11T19:13:30.245Z,29.02
2022-12-11T19:15:56.794Z,28.33
2022-12-11T19:18:23.342Z,25.63
2022-12-11T19:20:54.693Z,25.92
2022-12-11T19:23:24.509Z,30.70
2022-12-11T19:25:51.110Z,27.30
2022-12-11T19:28:23.160Z,27.70
2022-12-11T19:30:50.894Z,26.55
2022-12-11T19:33:17.410Z,25.67
2022-12-11T19:35:46.649Z,26.25
2022-12-11T19:38:16.234Z,24.75
2022-12-11T19:40:44.365Z,27.10
2022-12-11T19:43:11.193Z,28.17
2022-12-11T19:45:37.822Z,26.17
2022-12-11T19:48:04.699Z,25.60
2022-12-11T19:50:31.316Z,28.35
2022-12-11T19:52:57.857Z,28.98
2022-12-11T19:55:24.500Z,28.38
2022-12-11T19:57:53.998Z,29.27
2022-12-11T20:00:20.577Z,29.65
2022-12-11T20:02:47.218Z,27.17
2022-12-11T20:05:14.073Z,29.02
2022-12-11T20:07:41.412Z,27.25
2022-12-11T20:10:08.488Z,25.30
2022-12-11T20:12:34.990Z,28.52
2022-12-11T20:15:01.632Z,28.55
2022-12-11T20:17:28.596Z,27.25
2022-12-11T20:19:55.131Z,25.25
2022-12-11T20:22:21.625Z,26.15
2022-12-11T20:24:48.113Z,31.00
2022-12-11T20:27:14.638Z,32.13
2022-12-11T20:29:41.441Z,28.88
2022-12-11T20:32:07.983Z,29.98
2022-12-11T20:34:34.710Z,30.75
2022-12-11T20:37:01.250Z,31.63
2022-12-11T20:39:33.916Z,28.50
2022-12-11T20:42:00.510Z,38.22
2022-12-11T20:44:27.083Z,30.08
2022-12-11T20:46:53.631Z,26.80
2022-12-11T20:49:20.183Z,25.70
2022-12-11T20:51:46.819Z,26.15
2022-12-11T20:54:13.358Z,23.85
2022-12-11T20:56:39.956Z,26.80
2022-12-11T20:59:06.628Z,24.23
2022-12-11T21:01:33.199Z,23.13
2022-12-11T21:04:05.717Z,24.88
2022-12-11T21:06:34.695Z,25.52
2022-12-11T21:09:04.609Z,25.83
2022-12-11T21:11:31.128Z,27.02
2022-12-11T21:13:57.621Z,25.65
2022-12-11T21:16:24.495Z,23.05
2022-12-11T21:18:51.079Z,24.77
2022-12-11T21:21:17.953Z,22.70
2022-12-11T21:23:45.151Z,24.73
2022-12-11T21:26:12.281Z,24.17
2022-12-11T21:28:38.841Z,25.98
2022-12-11T21:31:08.039Z,23.08
2022-12-11T21:33:35.288Z,22.92
2022-12-11T21:36:02.166Z,23.48
2022-12-11T21:38:29.043Z,23.27
2022-12-11T21:40:57.377Z,25.08
2022-12-11T21:43:24.465Z,25.42
2022-12-11T21:46:06.967Z,21.10
2022-12-11T21:48:33.737Z,23.50
2022-12-11T21:51:14.237Z,22.65
2022-12-11T21:53:41.158Z,22.17
2022-12-11T21:56:14.055Z,25.08
2022-12-11T21:58:41.892Z,23.58
2022-12-11T22:01:19.564Z,22.25
2022-12-11T22:03:46.515Z,25.42
2022-12-11T22:06:13.028Z,22.15
2022-12-11T22:08:40.183Z,24.15
2022-12-11T22:11:07.268Z,21.70
2022-12-11T22:13:34.497Z,21.85
2022-12-11T22:16:01.132Z,21.30
2022-12-11T22:18:27.801Z,21.58
2022-12-11T22:20:54.735Z,20.77
2022-12-11T22:23:21.902Z,21.73
2022-12-11T22:25:48.573Z,22.15
2022-12-11T22:28:15.261Z,19.05
2022-12-11T22:30:42.268Z,20.33
2022-12-11T22:33:08.797Z,19.77
2022-12-11T22:35:36.155Z,17.75
2022-12-11T22:38:04.250Z,19.17
2022-12-11T22:40:31.283Z,18.20
2022-12-11T22:43:01.289Z,18.20
2022-12-11T22:45:27.822Z,19.15
2022-12-11T22:47:54.389Z,18.08
2022-12-11T22:50:20.903Z,18.48
2022-12-11T22:52:47.722Z,22.35
2022-12-11T22:55:14.540Z,18.50
2022-12-11T22:57:41.443Z,21.60
2022-12-11T23:00:10.445Z,18.70
2022-12-11T23:02:42.424Z,18.88
2022-12-11T23:05:10.775Z,17.88
2022-12-11T23:07:38.149Z,18.05
2022-12-11T23:10:06.784Z,18.20
2022-12-11T23:12:33.791Z,17.27
2022-12-11T23:15:00.333Z,17.67
2022-12-11T23:17:26.898Z,19.65
2022-12-11T23:19:53.806Z,19.48
2022-12-11T23:22:20.387Z,18.83
2022-12-11T23:24:47.077Z,19.75
2022-12-11T23:27:15.258Z,19.02
2022-12-11T23:29:41.866Z,19.13
2022-12-11T23:32:08.485Z,17.67
2022-12-11T23:34:35.004Z,20.92
2022-12-11T23:37:01.652Z,18.85
2022-12-11T23:39:28.407Z,19.83
2022-12-11T23:41:54.890Z,19.40
2022-12-11T23:44:21.515Z,20.00
2022-12-11T23:46:48.013Z,17.35
2022-12-11T23:49:14.603Z,18.52
2022-12-11T23:51:41.129Z,19.85
2022-12-11T23:54:07.646Z,19.52
2022-12-11T23:56:34.153Z,20.67
2022-12-11T23:59:00.629Z,20.85
